Germantown, Wisconsin
Current Conditions -  °F | °C
As of 11:45 AM on Thursday 29 Jan 2015 (Local Time) from KMWC Reporting Station
Overcast Overcast  
Wind Chill: 21°   Ceiling: 1900
Heat Index: 32°   Visibility: 7mi
Dew Point: 25°   Wind: 17mph
Humidity: 75%   Direction: 330°NNW
Pressure: 29.92"   Gusts: 22mph
Location:  43.22°N, 88.12°W
Report Text: KMWC 291745Z AUTO 33015G19KT 7SM OVC019 00/M04 A2992
Loading
Personal Weather Stations






























Interactive Weather Map New forecast layout! Learn more

10-Day Weather Forecast

Advertisements
Track Severe Weather on mobile